Time;durP1;ratioP1;P1;durP2;ratioP2;P2;SDS_P1;SDS_P2;PMS_P1;PMS_P2;Temp;Humidity;BMP_temperature;BMP_pressure;BME280_temperature;BME280_humidity;BME280_pressure;Samples;Min_cycle;Max_cycle;Signal;HPM_P1;HPM_P2
2022/05/29 00:01:06;;;;;;;11.38;8.38;;;;;;;18.19;80.73;94553.38;5075540;28;20195;-72
2022/05/29 00:03:34;;;;;;;13.13;8.90;;;;;;;18.24;80.91;94527.00;5074810;28;20201;-71
2022/05/29 00:06:01;;;;;;;10.45;8.63;;;;;;;18.22;80.55;94493.91;5074833;28;20181;-71
2022/05/29 00:08:31;;;;;;;9.45;7.95;;;;;;;18.26;80.68;94477.13;5075494;28;20227;-71
2022/05/29 00:10:59;;;;;;;9.63;7.75;;;;;;;18.28;80.13;94499.84;5075403;28;20246;-71
2022/05/29 00:13:26;;;;;;;9.15;7.80;;;;;;;18.23;80.43;94522.63;5074507;28;20200;-71
2022/05/29 00:15:53;;;;;;;10.02;7.85;;;;;;;18.21;80.94;94525.81;5075129;28;20189;-70
2022/05/29 00:18:21;;;;;;;11.63;8.43;;;;;;;18.24;80.53;94518.63;5075405;28;20197;-70
2022/05/29 00:20:51;;;;;;;10.50;7.45;;;;;;;18.22;80.32;94513.44;5075301;28;20189;-72
2022/05/29 00:23:18;;;;;;;11.52;7.80;;;;;;;18.22;80.47;94510.66;5074828;28;20237;-72
2022/05/29 00:25:49;;;;;;;11.48;7.70;;;;;;;18.21;80.38;94502.69;5074952;28;20610;-72
2022/05/29 00:28:16;;;;;;;12.88;7.47;;;;;;;18.21;80.24;94486.75;5075189;28;20212;-72
2022/05/29 00:30:43;;;;;;;10.75;7.65;;;;;;;18.20;80.10;94468.44;5074281;28;20189;-72
2022/05/29 00:33:10;;;;;;;9.13;7.20;;;;;;;18.19;80.10;94466.84;5075136;28;20193;-71
2022/05/29 00:35:39;;;;;;;10.35;7.15;;;;;;;18.16;80.37;94470.47;5075245;28;20197;-71
2022/05/29 00:38:07;;;;;;;9.93;7.07;;;;;;;18.17;80.43;94454.50;5074311;28;20197;-72
2022/05/29 00:40:38;;;;;;;12.65;7.43;;;;;;;18.17;80.82;94458.09;5074910;28;20188;-72
2022/05/29 00:43:05;;;;;;;11.80;7.50;;;;;;;18.17;80.80;94424.59;5074794;28;20185;-72
2022/05/29 00:45:45;;;;;;;17.00;7.50;;;;;;;18.17;80.76;94385.53;5074118;28;20212;-72
2022/05/29 00:48:15;;;;;;;9.52;7.65;;;;;;;18.15;80.68;94357.22;5074710;28;20201;-72
2022/05/29 00:50:42;;;;;;;9.70;7.57;;;;;;;18.16;80.43;94427.81;5075050;28;20189;-72
2022/05/29 00:53:10;;;;;;;12.68;7.60;;;;;;;18.14;80.56;94463.72;5074699;28;20181;-72
2022/05/29 00:55:37;;;;;;;11.00;8.48;;;;;;;18.09;80.50;94470.56;5074054;28;20200;-72
2022/05/29 00:58:05;;;;;;;11.00;8.20;;;;;;;18.08;80.84;94432.66;5075305;28;20208;-72
2022/05/29 01:00:34;;;;;;;9.80;8.35;;;;;;;18.10;80.73;94418.31;5074030;28;20211;-72
2022/05/29 01:03:02;;;;;;;10.23;7.88;;;;;;;18.11;80.85;94414.31;5074818;28;20181;-72
2022/05/29 01:05:31;;;;;;;10.60;8.63;;;;;;;18.12;80.83;94410.31;5074353;28;20193;-72
2022/05/29 01:08:01;;;;;;;11.32;8.52;;;;;;;18.11;80.47;94392.78;5074073;28;20230;-71
2022/05/29 01:10:35;;;;;;;10.95;8.30;;;;;;;18.10;80.66;94382.81;5074898;28;20181;-71
2022/05/29 01:13:07;;;;;;;11.32;8.43;;;;;;;18.07;80.63;94425.50;5073594;28;20201;-71
2022/05/29 01:15:40;;;;;;;10.35;8.85;;;;;;;18.01;80.08;94444.72;5074313;28;20201;-71
2022/05/29 01:18:18;;;;;;;9.90;8.30;;;;;;;18.01;80.22;94382.53;5078187;28;20185;-71
2022/05/29 01:21:23;;;;;;;9.90;7.78;;;;;;;18.02;80.28;94412.81;5078765;28;20209;-71
2022/05/29 01:24:12;;;;;;;13.18;8.07;;;;;;;18.02;80.23;94432.34;5078429;28;20192;-71
2022/05/29 01:26:59;;;;;;;11.32;7.90;;;;;;;17.96;80.40;94419.28;5049930;28;20648;-71
2022/05/29 01:29:33;;;;;;;10.98;7.97;;;;;;;17.94;80.50;94418.91;5078420;28;20192;-71
2022/05/29 01:32:05;;;;;;;13.23;8.02;;;;;;;17.89;80.45;94397.81;5078434;28;20238;-71
2022/05/29 01:34:36;;;;;;;8.15;7.35;;;;;;;17.89;80.36;94394.25;5078400;28;20197;-73
2022/05/29 01:37:12;;;;;;;10.95;7.68;;;;;;;17.87;80.28;94394.66;5077305;28;20518;-72
2022/05/29 01:39:45;;;;;;;8.85;7.15;;;;;;;17.86;79.79;94401.44;5078264;28;20200;-71
2022/05/29 01:42:16;;;;;;;7.60;6.82;;;;;;;17.87;79.34;94402.25;5078271;28;20466;-72
2022/05/29 01:44:48;;;;;;;8.40;7.38;;;;;;;17.86;80.33;94401.44;5077882;28;20193;-72
2022/05/29 01:47:36;;;;;;;8.40;6.68;;;;;;;17.86;80.88;94406.22;5078027;28;20224;-72
2022/05/29 01:50:08;;;;;;;8.55;6.78;;;;;;;17.85;80.46;94397.06;5077741;28;20200;-71
2022/05/29 01:52:40;;;;;;;10.18;6.90;;;;;;;17.85;80.76;94394.28;5077223;28;20192;-71
2022/05/29 01:55:10;;;;;;;8.10;6.78;;;;;;;17.85;81.54;94399.88;5077894;28;20193;-71
2022/05/29 01:57:39;;;;;;;9.25;6.43;;;;;;;17.86;80.90;94398.66;5077014;28;20206;-71
2022/05/29 02:00:10;;;;;;;9.80;6.78;;;;;;;17.84;81.04;94395.50;5077046;28;20605;-71
2022/05/29 02:02:44;;;;;;;9.57;6.93;;;;;;;17.83;81.87;94391.13;5077949;28;20181;-71
2022/05/29 02:05:13;;;;;;;8.90;7.00;;;;;;;17.80;81.80;94389.97;5077749;28;20522;-71
2022/05/29 02:07:50;;;;;;;8.30;6.90;;;;;;;17.82;81.35;94375.59;5076902;28;20224;-72
2022/05/29 02:10:23;;;;;;;10.43;7.22;;;;;;;17.82;82.35;94374.81;5077163;28;20185;-72
2022/05/29 02:12:55;;;;;;;8.90;7.30;;;;;;;17.78;81.61;94364.47;5077591;28;20205;-73
2022/05/29 02:15:26;;;;;;;8.80;7.82;;;;;;;17.79;81.52;94371.66;5077734;28;20189;-73
2022/05/29 02:17:56;;;;;;;8.27;6.65;;;;;;;17.80;81.71;94364.06;5077067;28;20330;-73
2022/05/29 02:20:25;;;;;;;9.55;7.10;;;;;;;17.78;81.50;94364.47;5077588;28;20189;-73
2022/05/29 02:22:56;;;;;;;10.27;7.07;;;;;;;17.80;80.98;94364.06;5076384;28;20240;-73
2022/05/29 02:25:26;;;;;;;9.70;7.32;;;;;;;17.82;81.05;94352.50;5076536;28;20200;-73
2022/05/29 02:27:56;;;;;;;7.95;7.03;;;;;;;17.83;80.97;94356.84;5076153;28;20225;-73
2022/05/29 02:30:31;;;;;;;8.70;6.70;;;;;;;17.80;80.48;94350.13;5077022;28;20192;-73
2022/05/29 02:33:03;;;;;;;10.18;6.82;;;;;;;17.75;80.75;94356.13;5077268;28;20184;-72
2022/05/29 02:35:36;;;;;;;11.25;6.88;;;;;;;17.71;81.34;94342.22;5076346;28;20540;-72
2022/05/29 02:38:07;;;;;;;8.68;6.53;;;;;;;17.68;82.06;94350.63;5076404;28;20197;-72
2022/05/29 02:40:41;;;;;;;10.02;6.47;;;;;;;17.65;82.21;94345.91;5076285;28;20196;-72
2022/05/29 02:43:15;;;;;;;8.80;6.75;;;;;;;17.61;82.55;94348.72;5076202;28;20223;-72
2022/05/29 02:45:46;;;;;;;13.00;7.30;;;;;;;17.64;82.88;94338.72;5076678;28;20197;-72
2022/05/29 02:48:20;;;;;;;14.50;8.30;;;;;;;17.64;82.46;94339.50;5076641;28;20220;-72
2022/05/29 02:50:49;;;;;;;11.13;7.90;;;;;;;17.66;81.89;94330.75;5076933;28;20246;-72
2022/05/29 02:53:16;;;;;;;13.05;8.45;;;;;;;17.66;81.90;94327.97;5076092;28;20583;-72
2022/05/29 02:55:44;;;;;;;11.43;8.70;;;;;;;17.67;81.87;94319.16;5077006;28;20193;-72
2022/05/29 02:58:18;;;;;;;15.38;11.23;;;;;;;17.64;81.59;94313.63;5076879;28;20177;-72
2022/05/29 03:01:05;;;;;;;23.30;20.85;;;;;;;17.59;81.24;94314.09;5075908;28;20207;-72
2022/05/29 03:03:35;;;;;;;24.75;22.20;;;;;;;17.58;81.35;94318.88;5076418;28;20223;-72
2022/05/29 03:06:09;;;;;;;16.55;14.85;;;;;;;17.56;81.36;94310.13;5075786;28;20200;-73
2022/05/29 03:08:47;;;;;;;8.40;6.30;;;;;;;17.53;79.95;94292.22;5075265;28;20212;-72
2022/05/29 03:11:19;;;;;;;7.78;5.30;;;;;;;17.53;79.04;94289.44;5076594;28;20200;-73
2022/05/29 03:13:53;;;;;;;10.80;4.97;;;;;;;17.52;77.99;94292.66;5075739;28;20212;-73
2022/05/29 03:16:30;;;;;;;5.30;4.10;;;;;;;17.48;77.50;94291.91;5076134;28;20188;-73
2022/05/29 03:19:02;;;;;;;5.63;3.75;;;;;;;17.44;77.33;94285.59;5075414;28;20192;-73
2022/05/29 03:21:33;;;;;;;7.50;4.35;;;;;;;17.41;77.50;94286.44;5076432;28;20189;-72
2022/05/29 03:24:15;;;;;;;6.25;3.95;;;;;;;17.37;78.42;94283.69;5075573;28;20208;-72
2022/05/29 03:26:48;;;;;;;5.82;4.53;;;;;;;17.36;78.00;94289.66;5075438;28;20200;-71
2022/05/29 03:29:19;;;;;;;6.57;3.97;;;;;;;17.33;77.50;94294.88;5075178;28;20220;-72
2022/05/29 03:31:47;;;;;;;6.55;3.88;;;;;;;17.30;77.84;94290.13;5075458;28;20197;-72
2022/05/29 03:34:15;;;;;;;4.78;3.72;;;;;;;17.29;78.06;94284.97;5076135;28;20247;-72
2022/05/29 03:36:46;;;;;;;6.40;3.60;;;;;;;17.29;79.10;94287.75;5076212;28;20216;-73
2022/05/29 03:39:13;;;;;;;8.18;4.07;;;;;;;17.26;78.57;94283.78;5075928;28;20192;-71
2022/05/29 03:41:43;;;;;;;4.88;3.90;;;;;;;17.25;79.58;94290.59;5074033;28;20204;-71
2022/05/29 03:44:10;;;;;;;5.20;3.80;;;;;;;17.24;79.86;94286.19;5076006;28;20190;-71
2022/05/29 03:46:39;;;;;;;5.50;4.18;;;;;;;17.22;80.12;94285.84;5075873;28;20190;-71
2022/05/29 03:49:08;;;;;;;7.97;5.18;;;;;;;17.24;79.99;94288.97;5075818;28;20216;-71
2022/05/29 03:51:35;;;;;;;5.93;4.60;;;;;;;17.27;79.57;94288.16;5075042;28;20250;-71
2022/05/29 03:54:02;;;;;;;7.03;5.00;;;;;;;17.28;78.90;94286.16;5074869;28;20193;-71
2022/05/29 03:56:29;;;;;;;5.10;4.53;;;;;;;17.26;78.95;94277.44;5074820;28;20221;-71
2022/05/29 03:58:56;;;;;;;5.95;4.78;;;;;;;17.25;78.69;94265.50;5075293;28;20189;-71
2022/05/29 04:01:24;;;;;;;7.43;5.47;;;;;;;17.29;79.11;94268.25;5075636;28;20192;-73
2022/05/29 04:03:53;;;;;;;6.22;5.18;;;;;;;17.30;79.45;94262.25;5075909;28;20185;-74
2022/05/29 04:06:21;;;;;;;8.32;5.45;;;;;;;17.30;79.65;94267.03;5074813;28;20258;-74
2022/05/29 04:14:16;;;;;;;6.53;5.43;;;;;;;17.25;80.85;94270.28;5074905;28;20218;-74
2022/05/29 04:16:43;;;;;;;9.73;5.72;;;;;;;17.26;80.80;94269.88;5074207;28;20517;-74
2022/05/29 04:19:10;;;;;;;7.78;5.57;;;;;;;17.29;80.86;94271.81;5075275;28;20208;-74
2022/05/29 04:21:38;;;;;;;10.32;6.88;;;;;;;17.35;80.05;94265.78;5075032;28;20276;-74
2022/05/29 04:24:06;;;;;;;8.05;6.53;;;;;;;17.37;78.15;94268.97;5074561;28;20198;-74
2022/05/29 04:26:33;;;;;;;11.77;9.77;;;;;;;17.37;77.99;94272.53;5074529;28;20189;-75
2022/05/29 04:29:01;;;;;;;8.27;6.93;;;;;;;17.36;77.97;94281.28;5074908;28;20586;-75
2022/05/29 04:31:27;;;;;;;12.55;8.68;;;;;;;17.33;79.44;94280.94;5075354;28;20173;-74
2022/05/29 04:33:54;;;;;;;11.27;9.18;;;;;;;17.33;80.52;94280.16;5075286;28;20189;-74
2022/05/29 04:36:21;;;;;;;8.93;6.40;;;;;;;17.33;80.55;94278.16;5074949;28;20185;-75
2022/05/29 04:38:49;;;;;;;9.80;6.45;;;;;;;17.32;80.59;94286.94;5073912;28;20636;-74
2022/05/29 04:41:17;;;;;;;9.75;6.60;;;;;;;17.33;81.01;94300.44;5074236;28;20204;-76
2022/05/29 04:43:43;;;;;;;7.68;6.00;;;;;;;17.38;81.85;94298.41;5075321;28;20262;-73
2022/05/29 04:46:10;;;;;;;7.78;6.38;;;;;;;17.40;81.57;94293.22;5074188;28;20567;-72
2022/05/29 04:48:37;;;;;;;7.22;6.10;;;;;;;17.41;81.74;94289.22;5075056;28;20216;-72
2022/05/29 04:51:06;;;;;;;12.52;7.95;;;;;;;17.45;82.03;94289.97;5074069;28;20200;-73
2022/05/29 04:53:33;;;;;;;8.32;7.35;;;;;;;17.50;80.99;94286.69;5079221;28;20185;-72
2022/05/29 04:56:01;;;;;;;8.50;7.32;;;;;;;17.58;80.13;94293.00;5079071;28;20193;-72
2022/05/29 04:58:29;;;;;;;10.35;7.32;;;;;;;17.61;79.77;94286.56;5079140;28;20196;-72
2022/05/29 05:00:57;;;;;;;7.93;6.90;;;;;;;17.64;79.07;94280.94;5078997;28;20189;-73
2022/05/29 05:03:24;;;;;;;7.22;6.35;;;;;;;17.69;77.72;94274.94;5078125;28;20227;-73
2022/05/29 05:05:51;;;;;;;7.80;7.00;;;;;;;17.72;79.31;94285.25;5077795;28;20201;-72
2022/05/29 05:08:18;;;;;;;9.43;6.60;;;;;;;17.73;77.82;94277.66;5078568;28;20307;-72
2022/05/29 05:10:45;;;;;;;7.95;6.68;;;;;;;17.72;79.30;94288.03;5078860;28;20205;-72
2022/05/29 05:13:13;;;;;;;10.80;7.13;;;;;;;17.74;79.15;94282.03;5078775;28;20181;-73
2022/05/29 05:15:39;;;;;;;8.90;6.32;;;;;;;17.75;78.63;94281.63;5078479;28;20189;-73
2022/05/29 05:18:07;;;;;;;7.20;6.40;;;;;;;17.74;79.07;94279.25;5078900;28;20185;-73
2022/05/29 05:20:35;;;;;;;8.65;6.65;;;;;;;17.76;79.07;94283.25;5078420;28;20192;-73
2022/05/29 05:23:02;;;;;;;10.70;6.30;;;;;;;17.79;78.00;94287.97;5077155;28;20335;-72
2022/05/29 05:25:28;;;;;;;9.65;5.75;;;;;;;17.83;78.47;94278.75;5077626;28;20185;-73
2022/05/29 05:27:55;;;;;;;7.70;5.97;;;;;;;17.86;78.89;94275.13;5077914;28;20205;-73
2022/05/29 05:30:24;;;;;;;7.68;5.82;;;;;;;17.87;80.11;94271.94;5077496;28;20277;-73
2022/05/29 05:32:52;;;;;;;8.63;6.07;;;;;;;17.89;80.18;94279.88;5077404;28;20567;-73
2022/05/29 05:35:18;;;;;;;7.20;5.80;;;;;;;17.90;79.10;94285.06;5078040;28;20254;-73
2022/05/29 05:37:45;;;;;;;8.48;6.00;;;;;;;17.91;77.89;94280.25;5078332;28;20186;-73
2022/05/29 05:40:15;;;;;;;9.73;5.70;;;;;;;17.93;77.80;94278.59;5077315;28;20632;-71
2022/05/29 05:42:42;;;;;;;13.65;8.85;;;;;;;17.92;79.12;94282.63;5077130;28;20196;-73
2022/05/29 05:45:11;;;;;;;11.18;6.70;;;;;;;17.93;78.92;94281.41;5078132;28;20193;-73
2022/05/29 05:47:39;;;;;;;8.50;7.03;;;;;;;17.95;78.85;94283.78;5077693;28;20506;-73
2022/05/29 05:50:09;;;;;;;8.65;6.45;;;;;;;17.97;78.41;94273.78;5077108;28;20221;-73
2022/05/29 05:52:36;;;;;;;8.00;6.35;;;;;;;17.98;79.01;94277.38;5077769;28;20185;-73
2022/05/29 05:55:04;;;;;;;7.20;5.80;;;;;;;17.99;78.19;94267.78;5077093;28;20200;-73
2022/05/29 05:57:30;;;;;;;8.75;6.40;;;;;;;17.99;79.13;94259.41;5077567;28;20193;-73
2022/05/29 05:59:57;;;;;;;9.32;5.90;;;;;;;17.98;79.36;94277.38;5077760;28;20189;-72
2022/05/29 06:02:24;;;;;;;8.13;6.22;;;;;;;17.99;78.31;94279.72;5076886;28;20204;-73
2022/05/29 06:04:52;;;;;;;9.02;6.03;;;;;;;18.01;77.67;94271.75;5076793;28;20190;-73
2022/05/29 06:07:19;;;;;;;6.85;5.78;;;;;;;18.02;77.80;94276.09;5077047;28;20197;-73
2022/05/29 06:09:46;;;;;;;8.05;6.22;;;;;;;18.02;78.14;94275.31;5078183;28;20220;-75
2022/05/29 06:12:13;;;;;;;9.45;6.15;;;;;;;18.03;77.70;94269.31;5077240;28;20211;-72
2022/05/29 06:14:39;;;;;;;9.27;6.50;;;;;;;18.04;78.52;94275.66;5076916;28;20221;-73
2022/05/29 06:17:06;;;;;;;8.75;6.13;;;;;;;18.04;78.05;94261.72;5077596;28;20196;-73
2022/05/29 06:19:33;;;;;;;8.55;5.80;;;;;;;18.07;78.07;94260.88;5077211;28;20197;-73
2022/05/29 06:22:02;;;;;;;7.63;6.00;;;;;;;18.07;78.73;94260.88;5077370;28;20241;-73
2022/05/29 06:24:29;;;;;;;9.07;6.07;;;;;;;18.08;77.92;94270.03;5076630;28;20197;-73
2022/05/29 06:26:57;;;;;;;9.60;6.53;;;;;;;18.09;77.59;94257.69;5076250;28;20208;-74
2022/05/29 06:29:24;;;;;;;9.60;6.63;;;;;;;18.10;78.47;94259.25;5077069;28;20217;-74
2022/05/29 06:31:53;;;;;;;11.88;6.57;;;;;;;18.09;78.53;94252.13;5076413;28;20193;-74
2022/05/29 06:34:21;;;;;;;8.18;6.18;;;;;;;18.09;78.45;94244.53;5076616;28;20201;-75
2022/05/29 06:36:48;;;;;;;8.32;5.65;;;;;;;18.14;77.93;94227.28;5076196;28;20595;-73
2022/05/29 06:39:16;;;;;;;7.60;5.65;;;;;;;18.19;77.95;94232.41;5076305;28;20193;-74
2022/05/29 06:41:43;;;;;;;10.88;6.68;;;;;;;18.23;79.36;94235.94;5076202;28;20195;-73
2022/05/29 06:44:10;;;;;;;6.53;4.75;;;;;;;18.26;79.32;94226.72;5076726;28;20582;-74
2022/05/29 06:46:37;;;;;;;6.93;5.30;;;;;;;18.31;78.16;94227.47;5077029;28;20192;-73
2022/05/29 06:49:04;;;;;;;8.20;6.30;;;;;;;18.36;76.95;94227.75;5075920;28;20205;-73
2022/05/29 06:51:31;;;;;;;7.88;6.00;;;;;;;18.43;76.65;94219.25;5077001;28;20201;-74
2022/05/29 06:53:59;;;;;;;7.30;6.05;;;;;;;18.47;76.93;94214.41;5077077;28;20568;-74
2022/05/29 06:56:28;;;;;;;8.18;5.85;;;;;;;18.51;77.75;94211.53;5076100;28;20204;-74
2022/05/29 06:58:55;;;;;;;8.43;5.43;;;;;;;18.51;77.08;94217.91;5076801;28;20185;-74
2022/05/29 07:07:02;;;;;;;4.90;4.10;;;;;;;18.70;74.04;94208.03;5075661;28;20193;-73
2022/05/29 07:09:30;;;;;;;5.63;3.40;;;;;;;18.88;70.47;94201.34;5076194;28;20687;-73
2022/05/29 07:12:05;;;;;;;5.97;3.35;;;;;;;19.08;70.13;94190.22;5075803;28;20197;-73
2022/05/29 07:14:32;;;;;;;6.25;3.13;;;;;;;19.22;68.64;94196.31;5075592;28;20216;-73
2022/05/29 07:16:58;;;;;;;4.88;2.95;;;;;;;19.33;66.51;94186.91;5075508;28;20193;-73
2022/05/29 07:19:28;;;;;;;5.32;3.20;;;;;;;19.47;66.38;94186.63;5075676;28;20196;-74
2022/05/29 07:21:57;;;;;;;4.95;3.17;;;;;;;19.56;64.67;94183.22;5075530;28;20233;-73
2022/05/29 07:24:24;;;;;;;3.90;3.45;;;;;;;19.59;66.79;94180.38;5076822;28;20189;-73
2022/05/29 07:26:51;;;;;;;7.70;3.28;;;;;;;19.68;66.71;94194.59;5075284;28;20193;-73
2022/05/29 07:29:19;;;;;;;4.80;3.30;;;;;;;19.75;66.04;94192.84;5076218;28;20220;-73
2022/05/29 07:31:46;;;;;;;5.00;3.40;;;;;;;19.82;65.14;94195.47;5075318;28;20216;-72
2022/05/29 07:34:13;;;;;;;4.93;2.90;;;;;;;19.86;64.09;94198.97;5076158;28;20200;-73
2022/05/29 07:36:39;;;;;;;6.90;3.17;;;;;;;19.90;63.10;94200.50;5075246;28;20185;-73
2022/05/29 07:39:08;;;;;;;6.43;3.20;;;;;;;20.01;64.23;94193.84;5075690;28;20200;-73
2022/05/29 07:44:20;;;;;;;5.45;2.90;;;;;;;20.12;64.68;94188.81;5075871;28;20267;-72
2022/05/29 07:46:47;;;;;;;4.28;2.97;;;;;;;20.21;64.09;94183.38;5074863;28;20193;-73
2022/05/29 07:49:13;;;;;;;6.60;2.80;;;;;;;20.30;63.69;94180.78;5075395;28;20204;-73
2022/05/29 07:51:40;;;;;;;6.15;2.92;;;;;;;20.35;63.76;94179.47;5075888;28;20203;-73
2022/05/29 07:54:07;;;;;;;6.50;3.20;;;;;;;20.40;61.53;94182.50;5075655;28;20282;-73
2022/05/29 07:56:34;;;;;;;5.82;3.33;;;;;;;20.45;62.12;94181.22;5074564;28;20209;-73
2022/05/29 07:59:00;;;;;;;7.30;2.95;;;;;;;20.53;61.58;94182.63;5074754;28;20201;-73
2022/05/29 08:01:29;;;;;;;6.10;3.03;;;;;;;20.61;61.49;94180.44;5075310;28;20561;-73
2022/05/29 08:03:55;;;;;;;4.70;2.50;;;;;;;20.67;60.66;94175.88;5075991;28;20204;-73
2022/05/29 08:06:23;;;;;;;5.05;3.28;;;;;;;20.73;62.50;94173.31;5074622;28;20601;-73
2022/05/29 08:08:50;;;;;;;4.53;3.08;;;;;;;20.81;60.92;94172.72;5074631;28;20212;-73
2022/05/29 08:11:18;;;;;;;4.65;2.85;;;;;;;20.88;60.81;94168.94;5074646;28;20205;-73
2022/05/29 08:13:45;;;;;;;5.95;3.10;;;;;;;20.91;60.22;94163.22;5075485;28;20207;-73
2022/05/29 08:16:17;;;;;;;4.97;3.10;;;;;;;20.96;61.24;94175.91;5074439;28;20197;-74
2022/05/29 08:18:45;;;;;;;7.05;3.38;;;;;;;20.97;61.79;94163.47;5074383;28;20200;-73
2022/05/29 08:21:11;;;;;;;4.63;3.63;;;;;;;21.10;60.52;94160.72;5074349;28;20208;-74
2022/05/29 08:23:40;;;;;;;4.88;2.97;;;;;;;21.06;60.48;94152.41;5075592;28;20251;-74
2022/05/29 08:31:47;;;;;;;7.00;3.20;;;;;;;21.30;60.46;94147.31;5033672;28;20210;-73
2022/05/29 08:34:15;;;;;;;4.43;2.97;;;;;;;21.33;60.25;94146.47;5059769;28;20532;-73
2022/05/29 08:36:42;;;;;;;4.43;2.72;;;;;;;21.38;60.09;94145.91;5074828;28;20546;-73
2022/05/29 08:39:08;;;;;;;6.85;3.10;;;;;;;21.44;59.23;94148.16;5074167;28;20233;-73
2022/05/29 08:41:40;;;;;;;8.15;3.15;;;;;;;21.53;58.84;94146.28;5073980;28;20545;-73
2022/05/29 08:44:09;;;;;;;5.55;2.90;;;;;;;21.59;58.45;94130.47;5074836;28;20216;-73
2022/05/29 08:46:38;;;;;;;5.60;3.42;;;;;;;21.66;58.69;94129.47;5075076;28;20204;-73
2022/05/29 08:49:06;;;;;;;7.35;3.50;;;;;;;21.73;58.48;94134.84;5074640;28;20181;-72
2022/05/29 08:51:50;;;;;;;5.20;3.65;;;;;;;21.77;60.29;94134.75;5074772;28;20203;-73
2022/05/29 08:54:23;;;;;;;4.53;3.22;;;;;;;21.76;58.77;94110.72;5074105;28;20196;-73
2022/05/29 08:56:57;;;;;;;4.78;3.33;;;;;;;21.90;59.25;94131.97;5074073;28;20189;-73
2022/05/29 08:59:34;;;;;;;4.25;3.08;;;;;;;21.94;59.68;94129.81;5074260;28;20246;-72
2022/05/29 09:02:06;;;;;;;5.32;3.38;;;;;;;22.04;57.10;94121.06;5074766;28;20189;-72
2022/05/29 09:04:35;;;;;;;6.30;3.28;;;;;;;22.06;56.90;94118.56;5074965;28;20197;-72
2022/05/29 09:07:05;;;;;;;7.35;2.92;;;;;;;22.09;56.99;94109.25;5075215;28;20186;-73
2022/05/29 09:09:36;;;;;;;8.23;3.08;;;;;;;22.17;56.04;94104.22;5073804;28;20216;-72
2022/05/29 09:12:06;;;;;;;7.32;3.42;;;;;;;22.19;57.71;94101.75;5074562;28;20192;-72
2022/05/29 09:14:39;;;;;;;5.72;3.42;;;;;;;22.24;55.59;94103.97;5075057;28;20189;-72
2022/05/29 09:17:12;;;;;;;4.88;3.28;;;;;;;22.30;54.27;94104.22;5074843;28;20216;-72
2022/05/29 09:19:42;;;;;;;8.15;3.90;;;;;;;22.34;53.90;94097.22;5074565;28;20186;-72
2022/05/29 09:22:17;;;;;;;3.67;3.20;;;;;;;22.40;54.43;94093.84;5074617;28;20255;-72
2022/05/29 09:24:58;;;;;;;4.72;3.00;;;;;;;22.47;53.03;94090.78;5073957;28;20258;-72
2022/05/29 09:27:25;;;;;;;7.45;3.88;;;;;;;22.45;53.14;94091.25;5074411;28;20190;-72
2022/05/29 09:29:52;;;;;;;6.05;3.53;;;;;;;22.55;54.21;94086.50;5073881;28;20291;-72
2022/05/29 09:32:22;;;;;;;8.52;3.55;;;;;;;22.64;54.73;94103.44;5073713;28;20636;-71
2022/05/29 09:35:01;;;;;;;7.18;3.33;;;;;;;22.69;53.30;94085.22;5074573;28;20205;-71
2022/05/29 09:37:38;;;;;;;5.20;2.85;;;;;;;22.68;55.22;94078.03;5074280;28;20216;-72
2022/05/29 09:40:11;;;;;;;7.80;3.45;;;;;;;22.77;54.63;94075.31;5077330;28;20220;-72
2022/05/29 09:42:39;;;;;;;7.45;3.40;;;;;;;22.88;55.53;94081.31;5078140;28;20200;-73
2022/05/29 09:45:12;;;;;;;6.68;3.22;;;;;;;22.93;53.93;94089.19;5077186;28;20196;-73
2022/05/29 09:50:29;;;;;;;4.97;3.47;;;;;;;22.99;53.00;94083.78;5076842;28;20217;-73
2022/05/29 09:52:58;;;;;;;8.35;4.00;;;;;;;22.92;54.04;94072.78;5077964;28;20186;-73
2022/05/29 09:55:26;;;;;;;6.65;3.45;;;;;;;22.95;53.28;94069.84;5077773;28;20189;-73
2022/05/29 09:57:56;;;;;;;8.82;3.85;;;;;;;22.86;53.11;94063.34;5077998;28;20203;-73
2022/05/29 10:00:28;;;;;;;8.68;4.45;;;;;;;22.81;53.93;94062.69;5076866;28;20204;-73
2022/05/29 10:02:55;;;;;;;8.98;3.60;;;;;;;22.87;53.32;94036.78;5077531;28;20264;-73
2022/05/29 10:05:25;;;;;;;5.18;3.90;;;;;;;22.97;52.54;94060.94;5077103;28;20204;-72
2022/05/29 10:07:53;;;;;;;10.55;4.72;;;;;;;23.09;52.31;94056.50;5077576;28;20184;-72
2022/05/29 10:10:32;;;;;;;5.55;4.18;;;;;;;23.18;52.95;94050.94;5077372;28;20205;-72
2022/05/29 10:13:01;;;;;;;6.90;3.65;;;;;;;23.24;53.99;94052.69;5076782;28;20235;-73
2022/05/29 10:15:38;;;;;;;5.55;4.35;;;;;;;23.32;52.70;94046.81;5076466;28;20201;-73
2022/05/29 10:18:12;;;;;;;6.82;4.30;;;;;;;23.42;52.46;94045.59;5077657;28;20196;-70
2022/05/29 10:20:41;;;;;;;8.30;4.45;;;;;;;23.50;51.66;94041.28;5077643;28;20185;-72
2022/05/29 10:23:09;;;;;;;8.88;4.10;;;;;;;23.57;52.06;94043.00;5076570;28;20243;-73
2022/05/29 10:25:39;;;;;;;5.72;3.75;;;;;;;23.58;52.42;94039.75;5077504;28;20189;-73
2022/05/29 10:28:12;;;;;;;6.25;3.88;;;;;;;23.64;52.49;94049.16;5076800;28;20201;-73
2022/05/29 10:30:43;;;;;;;7.63;3.95;;;;;;;23.74;51.51;94038.72;5077110;28;20530;-73
2022/05/29 10:33:13;;;;;;;5.25;3.40;;;;;;;23.75;52.05;94040.31;5077004;28;20186;-74
2022/05/29 10:35:41;;;;;;;8.82;3.85;;;;;;;23.53;50.71;94043.94;5076100;28;20212;-73
2022/05/29 10:38:22;;;;;;;7.07;4.13;;;;;;;23.32;51.71;94030.72;5077392;28;20197;-73
2022/05/29 10:40:52;;;;;;;5.68;3.50;;;;;;;23.15;52.59;94044.19;5077191;28;20251;-73
2022/05/29 10:43:38;;;;;;;6.57;3.90;;;;;;;23.02;51.54;94044.28;5075998;28;20216;-73
2022/05/29 10:46:07;;;;;;;4.97;3.78;;;;;;;22.98;52.72;94037.19;5077062;28;20200;-73
2022/05/29 10:49:07;;;;;;;6.10;3.60;;;;;;;23.06;52.91;94028.06;5076100;28;20201;-73
2022/05/29 10:51:48;;;;;;;5.97;3.67;;;;;;;23.19;52.65;94027.19;5065807;28;20221;-73
2022/05/29 10:54:24;;;;;;;9.18;4.30;;;;;;;23.13;52.07;94027.00;5077008;28;20185;-73
2022/05/29 10:57:06;;;;;;;6.80;3.72;;;;;;;23.03;52.79;94012.09;5076546;28;20589;-72
2022/05/29 10:59:55;;;;;;;5.32;3.38;;;;;;;22.91;53.25;94012.13;5076497;28;20193;-73
2022/05/29 11:05:26;;;;;;;9.32;4.03;;;;;;;22.70;54.22;93994.06;5076458;28;20573;-74
2022/05/29 11:08:02;;;;;;;11.68;9.10;;;;;;;22.65;54.57;93992.59;5075619;28;20571;-73
2022/05/29 11:10:40;;;;;;;6.22;4.80;;;;;;;22.63;54.82;93992.28;5076584;28;20231;-75
2022/05/29 11:13:24;;;;;;;10.05;4.65;;;;;;;22.87;57.34;93986.19;5076194;28;20192;-71
2022/05/29 11:16:00;;;;;;;8.75;5.03;;;;;;;22.97;54.78;93988.63;5075569;28;20228;-73
2022/05/29 11:18:46;;;;;;;6.60;4.35;;;;;;;23.17;54.41;93985.47;5075569;28;20216;-74
2022/05/29 11:21:19;;;;;;;7.75;4.43;;;;;;;23.36;54.49;93979.94;5076008;28;20192;-74
2022/05/29 11:24:09;;;;;;;8.88;5.60;;;;;;;23.59;55.84;93987.06;5076510;28;20255;-73
2022/05/29 11:26:46;;;;;;;7.32;4.90;;;;;;;23.75;53.30;93965.09;5076309;28;20216;-73
2022/05/29 11:29:40;;;;;;;10.40;4.57;;;;;;;23.74;53.54;93962.72;5075347;28;20197;-75
2022/05/29 11:32:19;;;;;;;7.40;4.43;;;;;;;23.74;53.90;93943.81;5075618;28;20235;-73
2022/05/29 11:34:52;;;;;;;10.05;4.63;;;;;;;23.83;53.23;93931.78;5075178;28;20193;-73
2022/05/29 11:37:37;;;;;;;8.02;4.80;;;;;;;23.95;51.95;93922.41;5075065;28;20205;-74
2022/05/29 11:40:11;;;;;;;6.95;4.60;;;;;;;23.97;52.94;93922.75;5075813;28;20192;-74
2022/05/29 11:42:47;;;;;;;5.22;4.20;;;;;;;24.08;53.22;93910.25;5076065;28;20192;-74
2022/05/29 11:45:19;;;;;;;8.48;4.05;;;;;;;24.17;53.08;93913.03;5075750;28;20200;-74
2022/05/29 11:53:26;;;;;;;6.47;4.40;;;;;;;24.37;52.10;93887.22;5075523;28;20177;-74
2022/05/29 11:55:55;;;;;;;9.52;4.82;;;;;;;24.43;52.12;93888.94;5075731;28;20193;-74
2022/05/29 11:58:25;;;;;;;6.20;4.40;;;;;;;24.32;51.42;93885.81;5075879;28;20189;-74
2022/05/29 12:00:57;;;;;;;6.45;4.90;;;;;;;24.13;50.90;93885.03;5074798;28;20620;-73
2022/05/29 12:03:36;;;;;;;8.48;5.55;;;;;;;24.18;52.46;93875.16;5075282;28;20193;-74
2022/05/29 12:06:08;;;;;;;7.53;5.63;;;;;;;24.12;51.13;93885.50;5075576;28;20224;-74
2022/05/29 12:08:41;;;;;;;7.30;5.40;;;;;;;23.96;52.99;93887.38;5074692;28;20197;-75
2022/05/29 12:11:18;;;;;;;7.95;5.43;;;;;;;23.99;52.41;93877.97;5074176;28;20237;-74
2022/05/29 12:13:53;;;;;;;7.65;5.13;;;;;;;23.93;52.51;93874.25;5074318;28;20199;-74
2022/05/29 12:16:22;;;;;;;10.20;5.60;;;;;;;23.83;52.39;93877.53;5075410;28;20193;-74
2022/05/29 12:18:51;;;;;;;9.32;5.30;;;;;;;23.77;53.82;93871.72;5075406;28;20196;-74